Time;durP1;ratioP1;P1;durP2;ratioP2;P2;SDS_P1;SDS_P2;PMS_P1;PMS_P2;Temp;Humidity;BMP_temperature;BMP_pressure;BME280_temperature;BME280_humidity;BME280_pressure;Samples;Min_cycle;Max_cycle;Signal;HPM_P1;HPM_P2
2024/01/20 00:00:38;;;;;;;23.10;13.43;;;;;;;;;;5111665;28;20085;-80
2024/01/20 00:03:05;;;;;;;24.02;13.70;;;;;;;;;;5110034;28;20040;-80
2024/01/20 00:05:31;;;;;;;25.92;15.32;;;;;;;;;;5111463;28;20047;-80
2024/01/20 00:07:57;;;;;;;22.02;14.95;;;;;;;;;;5112273;28;20073;-80
2024/01/20 00:10:23;;;;;;;21.48;15.07;;;;;;;;;;5114203;28;20047;-80
2024/01/20 00:12:49;;;;;;;21.60;14.73;;;;;;;;;;5119737;28;20051;-80
2024/01/20 00:15:15;;;;;;;21.67;14.70;;;;;;;;;;5112696;28;20051;-81
2024/01/20 00:17:41;;;;;;;23.48;15.43;;;;;;;;;;5107812;28;20115;-80
2024/01/20 00:20:10;;;;;;;28.25;16.40;;;;;;;;;;5099499;28;20048;-80
2024/01/20 00:22:37;;;;;;;21.73;15.23;;;;;;;;;;5099398;28;20043;-80
2024/01/20 00:25:03;;;;;;;23.38;16.88;;;;;;;;;;5100516;28;20058;-80
2024/01/20 00:27:29;;;;;;;23.30;16.08;;;;;;;;;;5108613;28;20043;-80
2024/01/20 00:29:55;;;;;;;24.15;15.55;;;;;;;;;;5099500;28;20497;-79
2024/01/20 00:32:21;;;;;;;23.58;16.15;;;;;;;;;;5101775;28;20043;-79
2024/01/20 00:34:47;;;;;;;23.52;17.05;;;;;;;;;;5119715;28;20047;-80
2024/01/20 00:37:13;;;;;;;23.25;16.90;;;;;;;;;;5102277;28;20044;-80
2024/01/20 00:39:39;;;;;;;27.67;17.63;;;;;;;;;;5097974;28;20056;-80
2024/01/20 00:42:06;;;;;;;30.00;17.15;;;;;;;;;;5100881;28;20048;-80
2024/01/20 00:44:32;;;;;;;29.25;18.40;;;;;;;;;;5108097;28;20040;-80
2024/01/20 00:46:58;;;;;;;28.13;17.30;;;;;;;;;;5121541;28;20039;-80
2024/01/20 00:49:24;;;;;;;26.10;16.35;;;;;;;;;;5113813;28;20043;-80
2024/01/20 00:51:50;;;;;;;25.63;17.80;;;;;;;;;;5120365;28;20065;-80
2024/01/20 00:54:16;;;;;;;24.02;18.55;;;;;;;;;;5118646;28;20119;-80
2024/01/20 00:56:42;;;;;;;25.85;18.48;;;;;;;;;;5118265;28;20043;-80
2024/01/20 00:59:08;;;;;;;28.02;17.88;;;;;;;;;;5099348;28;20050;-80
2024/01/20 01:01:34;;;;;;;25.10;17.52;;;;;;;;;;5104451;28;20070;-80
2024/01/20 01:04:00;;;;;;;26.45;18.05;;;;;;;;;;5098117;28;20055;-80
2024/01/20 01:06:26;;;;;;;23.70;17.45;;;;;;;;;;5101997;28;20044;-80
2024/01/20 01:08:52;;;;;;;29.00;19.17;;;;;;;;;;5105298;28;20081;-80
2024/01/20 01:11:19;;;;;;;28.92;19.50;;;;;;;;;;5114023;28;20055;-79
2024/01/20 01:13:45;;;;;;;28.70;18.50;;;;;;;;;;5104861;28;20036;-80
2024/01/20 01:16:11;;;;;;;28.15;18.52;;;;;;;;;;5108438;28;20436;-80
2024/01/20 01:18:37;;;;;;;29.75;19.27;;;;;;;;;;5112822;28;20040;-81
2024/01/20 01:21:03;;;;;;;27.08;19.42;;;;;;;;;;5109243;28;20080;-81
2024/01/20 01:23:30;;;;;;;24.88;18.90;;;;;;;;;;5095923;28;20073;-81
2024/01/20 01:25:56;;;;;;;30.77;19.73;;;;;;;;;;5097473;28;20048;-81
2024/01/20 01:28:22;;;;;;;27.40;18.15;;;;;;;;;;5097110;28;20127;-82
2024/01/20 01:30:49;;;;;;;26.33;19.77;;;;;;;;;;5096700;28;20040;-81
2024/01/20 01:33:15;;;;;;;31.25;19.48;;;;;;;;;;5100921;28;20086;-82
2024/01/20 01:35:41;;;;;;;29.35;20.70;;;;;;;;;;5117561;28;20043;-81
2024/01/20 01:38:07;;;;;;;30.30;20.90;;;;;;;;;;5097977;28;20454;-81
2024/01/20 01:40:33;;;;;;;29.98;20.27;;;;;;;;;;5078900;28;20047;-80
2024/01/20 01:43:00;;;;;;;31.77;20.40;;;;;;;;;;5096345;28;20048;-81
2024/01/20 01:45:27;;;;;;;32.17;20.48;;;;;;;;;;5096777;28;20047;-81
2024/01/20 01:47:54;;;;;;;30.52;19.33;;;;;;;;;;5096964;28;20048;-81
2024/01/20 01:50:21;;;;;;;27.83;21.15;;;;;;;;;;5098943;28;20054;-81
2024/01/20 01:52:47;;;;;;;30.20;20.08;;;;;;;;;;5096571;28;20481;-81
2024/01/20 01:55:15;;;;;;;29.27;20.50;;;;;;;;;;5100722;28;20048;-81
2024/01/20 01:57:42;;;;;;;37.10;20.73;;;;;;;;;;5106114;28;20066;-81
2024/01/20 02:00:08;;;;;;;28.67;20.38;;;;;;;;;;5107704;28;20580;-81
2024/01/20 02:02:34;;;;;;;24.98;20.25;;;;;;;;;;5115797;28;20043;-81
2024/01/20 02:05:01;;;;;;;32.22;19.67;;;;;;;;;;5109840;28;20051;-82
2024/01/20 02:07:27;;;;;;;30.92;21.23;;;;;;;;;;5099863;28;20444;-81
2024/01/20 02:09:54;;;;;;;32.53;23.02;;;;;;;;;;5113578;28;20035;-81
2024/01/20 02:12:20;;;;;;;35.47;21.75;;;;;;;;;;5099605;28;20044;-82
2024/01/20 02:14:47;;;;;;;29.92;21.95;;;;;;;;;;5104179;28;20035;-81
2024/01/20 02:17:13;;;;;;;33.97;22.27;;;;;;;;;;5108229;28;20055;-82
2024/01/20 02:19:40;;;;;;;32.92;21.85;;;;;;;;;;5111501;28;20044;-81
2024/01/20 02:22:12;;;;;;;33.65;23.63;;;;;;;;;;5103103;28;20040;-81
2024/01/20 02:24:39;;;;;;;33.08;24.10;;;;;;;;;;5098629;28;20043;-81
2024/01/20 02:27:05;;;;;;;36.92;23.63;;;;;;;;;;5106134;28;20047;-81
2024/01/20 02:29:31;;;;;;;38.47;23.15;;;;;;;;;;5114584;28;20093;-82
2024/01/20 02:31:57;;;;;;;31.10;21.60;;;;;;;;;;5105723;28;20474;-81
2024/01/20 02:34:23;;;;;;;30.83;23.00;;;;;;;;;;5095342;28;20493;-80
2024/01/20 02:36:51;;;;;;;39.22;25.73;;;;;;;;;;5109505;28;20039;-81
2024/01/20 02:39:17;;;;;;;38.45;23.80;;;;;;;;;;5114467;28;20100;-81
2024/01/20 02:41:43;;;;;;;36.88;24.27;;;;;;;;;;5104004;28;20050;-81
2024/01/20 02:44:09;;;;;;;33.55;23.85;;;;;;;;;;5119416;28;20492;-80
2024/01/20 02:46:35;;;;;;;32.40;23.65;;;;;;;;;;5115169;28;20074;-81
2024/01/20 02:49:01;;;;;;;34.65;25.05;;;;;;;;;;5095004;28;20097;-81
2024/01/20 02:51:27;;;;;;;35.05;25.83;;;;;;;;;;5096052;28;20047;-82
2024/01/20 02:53:53;;;;;;;38.97;24.85;;;;;;;;;;5110337;28;20048;-81
2024/01/20 02:56:22;;;;;;;35.35;25.13;;;;;;;;;;5116765;28;20040;-82
2024/01/20 02:58:48;;;;;;;37.80;25.85;;;;;;;;;;5100384;28;20104;-81
2024/01/20 03:01:15;;;;;;;38.03;27.00;;;;;;;;;;5108355;28;20047;-81
2024/01/20 03:03:41;;;;;;;34.20;26.08;;;;;;;;;;5114906;28;20051;-81
2024/01/20 03:06:07;;;;;;;33.63;25.48;;;;;;;;;;5101619;28;20051;-81
2024/01/20 03:08:33;;;;;;;35.97;25.70;;;;;;;;;;5102864;28;20048;-81
2024/01/20 03:10:59;;;;;;;37.60;27.40;;;;;;;;;;5115068;28;20058;-81
2024/01/20 03:13:25;;;;;;;38.58;26.98;;;;;;;;;;5121973;28;20039;-81
2024/01/20 03:15:51;;;;;;;39.00;26.25;;;;;;;;;;5114115;28;20066;-81
2024/01/20 03:18:17;;;;;;;39.67;26.33;;;;;;;;;;5109889;28;20081;-81
2024/01/20 03:20:43;;;;;;;34.88;26.17;;;;;;;;;;5117104;28;20557;-80
2024/01/20 03:23:10;;;;;;;39.63;28.60;;;;;;;;;;5109215;28;20058;-81
2024/01/20 03:25:36;;;;;;;40.03;27.60;;;;;;;;;;5113066;28;20086;-81
2024/01/20 03:28:02;;;;;;;38.95;26.88;;;;;;;;;;5103548;28;20040;-80
2024/01/20 03:30:28;;;;;;;37.08;27.40;;;;;;;;;;5108752;28;20052;-81
2024/01/20 03:32:54;;;;;;;42.95;27.52;;;;;;;;;;5109241;28;20469;-80
2024/01/20 03:35:22;;;;;;;39.00;26.63;;;;;;;;;;5111105;28;20458;-81
2024/01/20 03:37:48;;;;;;;38.42;27.88;;;;;;;;;;5121264;27;20051;-80
2024/01/20 03:40:14;;;;;;;38.13;27.45;;;;;;;;;;5111965;28;20048;-80
2024/01/20 03:42:40;;;;;;;41.85;28.08;;;;;;;;;;5110101;28;20048;-80
2024/01/20 03:45:06;;;;;;;40.10;27.48;;;;;;;;;;5119653;28;20043;-80
2024/01/20 03:47:33;;;;;;;41.80;27.35;;;;;;;;;;5108476;28;20039;-80
2024/01/20 03:49:59;;;;;;;36.63;27.25;;;;;;;;;;5110739;28;20035;-80
2024/01/20 03:52:25;;;;;;;44.08;27.95;;;;;;;;;;5108156;28;20039;-80
2024/01/20 03:54:51;;;;;;;40.42;27.30;;;;;;;;;;5104781;28;20070;-80
2024/01/20 03:57:17;;;;;;;41.25;28.20;;;;;;;;;;5111275;28;20043;-80
2024/01/20 03:59:43;;;;;;;42.67;29.27;;;;;;;;;;5105612;28;20048;-80
2024/01/20 04:02:09;;;;;;;44.63;29.90;;;;;;;;;;5113511;28;20126;-79
2024/01/20 04:04:37;;;;;;;40.58;27.67;;;;;;;;;;5104787;28;20103;-80
2024/01/20 04:07:03;;;;;;;44.00;28.23;;;;;;;;;;5112418;28;20054;-79
2024/01/20 04:09:29;;;;;;;40.50;29.15;;;;;;;;;;5115761;28;20040;-80
2024/01/20 04:11:55;;;;;;;45.97;29.38;;;;;;;;;;5100457;28;20048;-79
2024/01/20 04:14:21;;;;;;;42.05;27.45;;;;;;;;;;5107612;28;20477;-80
2024/01/20 04:16:48;;;;;;;40.83;28.90;;;;;;;;;;5114917;28;20055;-80
2024/01/20 04:19:14;;;;;;;44.15;30.40;;;;;;;;;;5110489;28;20130;-80
2024/01/20 04:21:42;;;;;;;45.60;29.27;;;;;;;;;;5113720;28;20101;-80
2024/01/20 04:24:08;;;;;;;42.75;28.35;;;;;;;;;;5118347;28;20044;-80
2024/01/20 04:26:35;;;;;;;45.45;28.65;;;;;;;;;;5116930;28;20043;-80
2024/01/20 04:29:01;;;;;;;52.03;29.30;;;;;;;;;;5113194;28;20039;-80
2024/01/20 04:31:27;;;;;;;43.83;28.73;;;;;;;;;;5105517;28;20044;-79
2024/01/20 04:33:53;;;;;;;43.65;28.90;;;;;;;;;;5115998;28;20386;-79
2024/01/20 04:36:19;;;;;;;40.55;26.83;;;;;;;;;;5119829;28;20055;-79
2024/01/20 04:38:46;;;;;;;41.85;27.33;;;;;;;;;;5122051;28;20032;-80
2024/01/20 04:41:12;;;;;;;45.08;28.02;;;;;;;;;;5119359;28;20052;-80
2024/01/20 04:43:38;;;;;;;42.30;28.08;;;;;;;;;;5121487;28;20065;-80
2024/01/20 04:46:04;;;;;;;46.88;29.60;;;;;;;;;;5120338;28;20454;-80
2024/01/20 04:48:31;;;;;;;41.25;26.92;;;;;;;;;;5117092;28;20046;-80
2024/01/20 04:50:57;;;;;;;48.45;27.85;;;;;;;;;;5101391;28;20048;-79
2024/01/20 04:53:23;;;;;;;46.55;27.63;;;;;;;;;;5101575;28;20093;-80
2024/01/20 04:55:49;;;;;;;45.45;27.73;;;;;;;;;;5119715;28;20047;-80
2024/01/20 04:58:15;;;;;;;48.67;27.95;;;;;;;;;;5120587;28;20089;-79
2024/01/20 05:00:42;;;;;;;49.45;28.83;;;;;;;;;;5121736;28;20044;-79
2024/01/20 05:03:08;;;;;;;46.03;28.75;;;;;;;;;;5120151;28;20032;-80
2024/01/20 05:05:34;;;;;;;56.45;30.42;;;;;;;;;;5120815;28;20062;-80
2024/01/20 05:08:00;;;;;;;52.03;29.58;;;;;;;;;;5120544;28;20472;-80
2024/01/20 05:10:26;;;;;;;53.65;29.27;;;;;;;;;;5120058;28;20054;-80
2024/01/20 05:12:52;;;;;;;48.75;28.42;;;;;;;;;;5119653;28;20051;-79
2024/01/20 05:15:18;;;;;;;55.08;29.35;;;;;;;;;;5106980;28;20519;-80
2024/01/20 05:17:44;;;;;;;52.15;29.35;;;;;;;;;;5109226;28;20079;-80
2024/01/20 05:20:14;;;;;;;54.50;29.13;;;;;;;;;;5115402;28;20050;-80
2024/01/20 05:22:41;;;;;;;53.65;29.05;;;;;;;;;;5111026;28;20032;-80
2024/01/20 05:25:07;;;;;;;53.38;30.27;;;;;;;;;;5106112;28;20060;-80
2024/01/20 05:27:33;;;;;;;53.35;30.83;;;;;;;;;;5115751;28;20044;-80
2024/01/20 05:29:59;;;;;;;54.13;30.30;;;;;;;;;;5120120;28;20610;-80
2024/01/20 05:32:26;;;;;;;55.17;30.83;;;;;;;;;;5118013;28;20047;-80
2024/01/20 05:34:52;;;;;;;56.08;30.17;;;;;;;;;;5107551;28;20067;-80
2024/01/20 05:37:18;;;;;;;55.53;29.95;;;;;;;;;;5116754;28;20069;-80
2024/01/20 05:39:44;;;;;;;61.72;30.77;;;;;;;;;;5119290;28;20048;-81
2024/01/20 05:42:10;;;;;;;55.10;30.25;;;;;;;;;;5117006;28;20047;-80
2024/01/20 05:44:36;;;;;;;60.58;31.30;;;;;;;;;;5106088;28;20040;-80
2024/01/20 05:47:02;;;;;;;56.80;31.15;;;;;;;;;;5101786;28;20047;-80
2024/01/20 05:49:29;;;;;;;57.78;29.48;;;;;;;;;;5082604;28;20044;-80
2024/01/20 05:51:55;;;;;;;67.32;31.23;;;;;;;;;;5104482;28;20165;-80
2024/01/20 05:54:21;;;;;;;58.88;29.92;;;;;;;;;;5102285;28;20047;-80
2024/01/20 05:56:47;;;;;;;63.20;31.08;;;;;;;;;;5115647;28;20043;-80
2024/01/20 05:59:13;;;;;;;62.22;30.92;;;;;;;;;;5106036;28;20043;-80
2024/01/20 06:01:39;;;;;;;60.95;32.58;;;;;;;;;;5114890;28;20055;-80
2024/01/20 06:04:05;;;;;;;62.95;31.65;;;;;;;;;;5109222;28;20534;-80
2024/01/20 06:06:31;;;;;;;62.40;30.70;;;;;;;;;;5104575;28;20439;-80
2024/01/20 06:08:57;;;;;;;58.65;30.42;;;;;;;;;;5099833;28;20095;-79
2024/01/20 06:11:24;;;;;;;56.60;29.52;;;;;;;;;;5099386;28;20043;-80
2024/01/20 06:13:50;;;;;;;59.05;31.50;;;;;;;;;;5098897;28;20048;-80
2024/01/20 06:16:16;;;;;;;61.83;31.50;;;;;;;;;;5100047;28;20052;-80
2024/01/20 06:18:43;;;;;;;62.22;31.80;;;;;;;;;;5104836;28;20059;-80
2024/01/20 06:21:09;;;;;;;54.33;28.80;;;;;;;;;;5104761;28;20040;-80
2024/01/20 06:23:35;;;;;;;59.80;31.30;;;;;;;;;;5102911;28;20044;-80
2024/01/20 06:26:02;;;;;;;60.92;29.40;;;;;;;;;;5116606;28;20058;-80
2024/01/20 06:28:29;;;;;;;57.80;29.90;;;;;;;;;;5105615;28;20043;-80
2024/01/20 06:30:56;;;;;;;58.10;31.75;;;;;;;;;;5116524;28;20044;-79
2024/01/20 06:33:22;;;;;;;57.20;28.45;;;;;;;;;;5109729;28;20083;-80
2024/01/20 06:35:50;;;;;;;56.50;30.52;;;;;;;;;;5111915;28;20052;-80
2024/01/20 06:38:16;;;;;;;57.60;29.90;;;;;;;;;;5115114;28;20397;-80
2024/01/20 06:40:42;;;;;;;56.92;28.92;;;;;;;;;;5120935;28;20039;-79
2024/01/20 06:43:09;;;;;;;51.83;28.48;;;;;;;;;;5122151;28;20040;-80
2024/01/20 06:45:35;;;;;;;59.70;30.25;;;;;;;;;;5123373;28;20078;-80
2024/01/20 06:48:01;;;;;;;62.17;29.83;;;;;;;;;;5116418;28;20048;-80
2024/01/20 06:50:27;;;;;;;61.92;29.42;;;;;;;;;;5111781;28;20043;-80
2024/01/20 06:52:53;;;;;;;57.20;28.52;;;;;;;;;;5119710;28;20066;-80
2024/01/20 06:55:19;;;;;;;55.08;28.75;;;;;;;;;;5118380;28;20043;-79
2024/01/20 06:57:45;;;;;;;55.08;29.13;;;;;;;;;;5119945;28;20047;-79
2024/01/20 07:00:12;;;;;;;56.78;28.27;;;;;;;;;;5122230;28;20439;-79
2024/01/20 07:02:41;;;;;;;55.50;29.02;;;;;;;;;;5121967;28;20035;-80
2024/01/20 07:05:09;;;;;;;54.53;27.35;;;;;;;;;;5105747;28;20617;-80
2024/01/20 07:07:37;;;;;;;57.47;28.92;;;;;;;;;;5119126;28;20071;-80
2024/01/20 07:10:05;;;;;;;52.00;27.23;;;;;;;;;;5119807;28;20449;-80
2024/01/20 07:12:31;;;;;;;57.25;29.38;;;;;;;;;;5120775;28;20118;-80
2024/01/20 07:14:57;;;;;;;56.40;30.17;;;;;;;;;;5106945;28;20187;-80
2024/01/20 07:17:24;;;;;;;52.33;27.23;;;;;;;;;;5104011;28;20047;-80
2024/01/20 07:19:50;;;;;;;54.03;27.80;;;;;;;;;;5112702;28;20086;-80
2024/01/20 07:22:16;;;;;;;51.90;27.52;;;;;;;;;;5116749;28;20051;-80
2024/01/20 07:24:42;;;;;;;55.78;27.20;;;;;;;;;;5101887;28;20050;-80
2024/01/20 07:27:08;;;;;;;49.97;27.20;;;;;;;;;;5121137;28;20051;-80
2024/01/20 07:29:34;;;;;;;51.58;25.20;;;;;;;;;;5114685;28;20049;-78
2024/01/20 07:32:03;;;;;;;52.80;28.13;;;;;;;;;;5117114;28;20044;-80
2024/01/20 07:34:29;;;;;;;57.55;27.40;;;;;;;;;;5110320;28;20052;-80
2024/01/20 07:36:55;;;;;;;55.25;27.23;;;;;;;;;;5114836;28;20047;-80
2024/01/20 07:39:21;;;;;;;52.67;27.85;;;;;;;;;;5115968;28;20052;-80
2024/01/20 07:41:47;;;;;;;53.80;27.00;;;;;;;;;;5116529;28;20043;-79
2024/01/20 07:44:13;;;;;;;55.60;27.45;;;;;;;;;;5115596;28;20047;-79
2024/01/20 07:46:39;;;;;;;50.90;26.45;;;;;;;;;;5120565;28;20089;-80
2024/01/20 07:49:05;;;;;;;47.30;26.35;;;;;;;;;;5101804;28;20067;-79
2024/01/20 07:51:31;;;;;;;52.40;26.60;;;;;;;;;;5112472;28;20409;-79
2024/01/20 07:53:57;;;;;;;52.22;25.70;;;;;;;;;;5120564;28;20040;-79
2024/01/20 07:56:23;;;;;;;57.88;27.55;;;;;;;;;;5100987;28;20051;-80
2024/01/20 07:58:50;;;;;;;56.88;27.65;;;;;;;;;;5100054;28;20040;-80
2024/01/20 08:01:17;;;;;;;55.10;28.38;;;;;;;;;;5107359;28;20354;-80
2024/01/20 08:03:43;;;;;;;51.17;27.15;;;;;;;;;;5118910;28;20053;-80
2024/01/20 08:06:09;;;;;;;51.25;26.58;;;;;;;;;;5120011;28;20054;-80
2024/01/20 08:08:35;;;;;;;51.30;27.10;;;;;;;;;;5125956;28;20047;-80
2024/01/20 08:11:01;;;;;;;49.92;26.70;;;;;;;;;;5121688;28;20100;-80
2024/01/20 08:13:27;;;;;;;51.72;27.15;;;;;;;;;;5118983;28;20055;-80
2024/01/20 08:15:53;;;;;;;54.60;27.23;;;;;;;;;;5119087;28;20181;-80
2024/01/20 08:18:20;;;;;;;53.35;25.20;;;;;;;;;;5119524;28;20047;-80
2024/01/20 08:20:46;;;;;;;53.13;26.83;;;;;;;;;;5119385;28;20081;-80
2024/01/20 08:23:12;;;;;;;51.35;27.50;;;;;;;;;;5119108;28;20054;-80
2024/01/20 08:25:38;;;;;;;47.97;25.58;;;;;;;;;;5112862;28;20446;-79
2024/01/20 08:28:04;;;;;;;50.25;26.40;;;;;;;;;;5114882;28;20087;-80
2024/01/20 08:30:30;;;;;;;55.25;27.80;;;;;;;;;;5114456;28;20076;-80
2024/01/20 08:32:56;;;;;;;47.78;25.98;;;;;;;;;;5108106;28;20046;-80
2024/01/20 08:35:22;;;;;;;49.55;26.98;;;;;;;;;;5099759;28;20051;-80
2024/01/20 08:37:48;;;;;;;47.65;25.63;;;;;;;;;;5110240;28;20047;-80
2024/01/20 08:40:14;;;;;;;45.28;26.05;;;;;;;;;;5112205;28;20044;-80
2024/01/20 08:42:40;;;;;;;46.90;26.10;;;;;;;;;;5106245;28;20095;-80
2024/01/20 08:45:06;;;;;;;49.50;25.70;;;;;;;;;;5107605;28;20043;-80
2024/01/20 08:47:33;;;;;;;53.83;26.08;;;;;;;;;;5114400;28;20102;-80
2024/01/20 08:49:59;;;;;;;46.70;25.70;;;;;;;;;;5098325;28;20051;-79
2024/01/20 08:52:25;;;;;;;44.30;24.48;;;;;;;;;;5115368;28;20097;-80
2024/01/20 08:54:51;;;;;;;46.75;25.77;;;;;;;;;;5120031;28;20056;-80
2024/01/20 08:57:17;;;;;;;49.50;26.70;;;;;;;;;;5120038;28;20055;-80
2024/01/20 08:59:43;;;;;;;43.80;24.85;;;;;;;;;;5114668;28;20450;-80
2024/01/20 09:02:09;;;;;;;44.67;25.23;;;;;;;;;;5106054;28;20404;-80
2024/01/20 09:04:35;;;;;;;47.67;24.35;;;;;;;;;;5114121;28;20036;-80
2024/01/20 09:07:01;;;;;;;44.53;25.17;;;;;;;;;;5109536;28;20043;-80
2024/01/20 09:09:27;;;;;;;48.67;25.88;;;;;;;;;;5103276;28;20131;-80
2024/01/20 09:11:53;;;;;;;46.20;24.85;;;;;;;;;;5111083;28;20477;-80
2024/01/20 09:14:19;;;;;;;40.65;24.35;;;;;;;;;;5114574;28;20065;-80
2024/01/20 09:16:45;;;;;;;43.80;25.00;;;;;;;;;;5118485;28;20044;-80
2024/01/20 09:19:11;;;;;;;49.80;26.67;;;;;;;;;;5104091;28;20094;-80
2024/01/20 09:21:37;;;;;;;44.55;25.02;;;;;;;;;;5108483;28;20042;-80
2024/01/20 09:24:04;;;;;;;46.45;25.00;;;;;;;;;;5106283;28;20203;-80
2024/01/20 09:26:30;;;;;;;40.80;24.13;;;;;;;;;;5101264;28;20462;-79
2024/01/20 09:28:57;;;;;;;42.20;24.02;;;;;;;;;;5102874;28;20036;-80
2024/01/20 09:31:23;;;;;;;41.45;22.65;;;;;;;;;;5109229;28;20048;-80
2024/01/20 09:33:50;;;;;;;43.00;26.02;;;;;;;;;;5108179;28;20051;-79
2024/01/20 09:36:16;;;;;;;39.72;21.75;;;;;;;;;;5101359;28;20055;-79
2024/01/20 09:38:42;;;;;;;42.03;23.38;;;;;;;;;;5100586;28;20512;-79
2024/01/20 09:41:09;;;;;;;42.38;24.67;;;;;;;;;;5104625;28;20048;-80
2024/01/20 09:43:38;;;;;;;42.50;23.50;;;;;;;;;;5111580;28;20046;-79
2024/01/20 09:46:04;;;;;;;39.13;21.92;;;;;;;;;;5112025;28;20054;-79
2024/01/20 09:48:30;;;;;;;41.80;23.58;;;;;;;;;;5105559;28;20062;-80
2024/01/20 09:50:58;;;;;;;39.95;22.17;;;;;;;;;;5109534;28;20484;-79
2024/01/20 09:53:24;;;;;;;38.13;22.23;;;;;;;;;;5103944;28;20040;-80
2024/01/20 09:55:51;;;;;;;39.78;22.45;;;;;;;;;;5101871;28;20119;-80
2024/01/20 09:58:17;;;;;;;36.00;22.00;;;;;;;;;;5108371;28;20052;-79
2024/01/20 10:00:44;;;;;;;40.95;22.52;;;;;;;;;;5105385;28;20032;-79
2024/01/20 10:03:11;;;;;;;38.58;22.27;;;;;;;;;;5102493;28;20091;-79
2024/01/20 10:05:37;;;;;;;38.20;21.55;;;;;;;;;;5102214;28;20044;-80
2024/01/20 10:08:04;;;;;;;37.20;20.95;;;;;;;;;;5106869;28;20055;-80
2024/01/20 10:10:31;;;;;;;37.25;21.70;;;;;;;;;;5105965;28;20493;-80
2024/01/20 10:12:58;;;;;;;35.80;21.70;;;;;;;;;;5108199;28;20036;-80
2024/01/20 10:15:28;;;;;;;38.85;21.13;;;;;;;;;;5104612;28;20048;-80
2024/01/20 10:17:57;;;;;;;35.75;21.70;;;;;;;;;;5108251;28;20052;-80
2024/01/20 10:20:31;;;;;;;33.42;19.60;;;;;;;;;;5114476;28;20143;-81
2024/01/20 10:23:00;;;;;;;32.97;20.42;;;;;;;;;;5117508;28;20059;-80
2024/01/20 10:25:26;;;;;;;36.80;21.40;;;;;;;;;;5115442;28;20051;-81
2024/01/20 10:27:52;;;;;;;32.00;19.33;;;;;;;;;;5107313;28;20059;-80
2024/01/20 10:30:20;;;;;;;34.13;20.55;;;;;;;;;;5103787;28;20059;-82
2024/01/20 10:32:47;;;;;;;34.40;19.75;;;;;;;;;;5103837;28;20052;-81
2024/01/20 10:35:13;;;;;;;36.20;19.42;;;;;;;;;;5106033;28;20489;-81
2024/01/20 10:37:44;;;;;;;31.90;19.95;;;;;;;;;;5116819;28;20115;-81
2024/01/20 10:40:14;;;;;;;32.40;19.52;;;;;;;;;;5112397;28;20093;-81
2024/01/20 10:42:44;;;;;;;36.15;20.38;;;;;;;;;;5123642;28;20134;-82
2024/01/20 10:45:12;;;;;;;31.58;18.65;;;;;;;;;;5123473;28;20081;-81
2024/01/20 10:47:39;;;;;;;31.15;18.67;;;;;;;;;;5103803;28;20047;-83
2024/01/20 10:50:06;;;;;;;32.67;19.30;;;;;;;;;;5110100;28;20139;-81
2024/01/20 10:52:35;;;;;;;30.88;18.38;;;;;;;;;;5123888;28;20054;-82
2024/01/20 10:55:02;;;;;;;33.58;19.17;;;;;;;;;;5105925;28;20052;-81
2024/01/20 10:57:28;;;;;;;31.17;18.10;;;;;;;;;;5118890;28;20046;-81
2024/01/20 10:59:56;;;;;;;34.80;18.67;;;;;;;;;;5115113;28;20493;-81
2024/01/20 11:02:26;;;;;;;31.45;18.35;;;;;;;;;;5103156;28;20062;-81
2024/01/20 11:04:52;;;;;;;29.05;18.02;;;;;;;;;;5105475;28;20121;-81
2024/01/20 11:07:22;;;;;;;32.28;19.02;;;;;;;;;;5107649;28;20036;-82
2024/01/20 11:09:58;;;;;;;25.50;17.58;;;;;;;;;;5123229;28;20044;-82
2024/01/20 11:12:25;;;;;;;30.60;18.40;;;;;;;;;;5108339;28;20039;-82
2024/01/20 11:14:52;;;;;;;26.92;17.40;;;;;;;;;;5116406;28;20050;-81
2024/01/20 11:17:18;;;;;;;30.27;18.15;;;;;;;;;;5111357;28;20443;-81
2024/01/20 11:19:45;;;;;;;29.50;17.90;;;;;;;;;;5123777;28;20048;-82
2024/01/20 11:22:30;;;;;;;28.60;17.48;;;;;;;;;;5111384;28;20061;-82
2024/01/20 11:24:56;;;;;;;27.52;17.17;;;;;;;;;;5115446;28;20058;-81
2024/01/20 11:27:24;;;;;;;29.45;16.02;;;;;;;;;;5115129;28;20461;-81
2024/01/20 11:29:50;;;;;;;28.63;17.52;;;;;;;;;;5122332;28;20051;-82
2024/01/20 11:32:17;;;;;;;30.90;17.42;;;;;;;;;;5102776;28;20056;-81
2024/01/20 11:34:46;;;;;;;29.50;17.08;;;;;;;;;;5101155;28;20036;-81
2024/01/20 11:37:13;;;;;;;30.75;17.75;;;;;;;;;;5101422;28;20106;-82
2024/01/20 11:39:39;;;;;;;28.88;17.70;;;;;;;;;;5109370;28;20048;-82
2024/01/20 11:42:06;;;;;;;30.73;17.75;;;;;;;;;;5122680;28;20060;-82
2024/01/20 11:44:32;;;;;;;28.10;17.25;;;;;;;;;;5116918;28;20040;-82
2024/01/20 11:46:59;;;;;;;28.63;17.77;;;;;;;;;;5102448;28;20131;-82
2024/01/20 11:49:26;;;;;;;26.67;17.23;;;;;;;;;;5114761;28;20094;-81
2024/01/20 11:51:52;;;;;;;28.05;17.52;;;;;;;;;;5115474;28;20099;-82
2024/01/20 11:54:18;;;;;;;34.15;18.48;;;;;;;;;;5107436;28;20094;-82
2024/01/20 11:56:44;;;;;;;29.73;16.77;;;;;;;;;;5109361;28;20104;-81
2024/01/20 11:59:13;;;;;;;27.92;16.95;;;;;;;;;;5111470;28;20492;-81
2024/01/20 12:01:39;;;;;;;31.23;19.65;;;;;;;;;;5106538;28;20060;-81
2024/01/20 12:04:05;;;;;;;28.40;18.00;;;;;;;;;;5116053;28;20062;-81
2024/01/20 12:06:31;;;;;;;30.25;18.70;;;;;;;;;;5103850;28;20044;-81
2024/01/20 12:08:57;;;;;;;31.65;18.70;;;;;;;;;;5102667;28;20043;-81
2024/01/20 12:11:24;;;;;;;28.30;17.75;;;;;;;;;;5102232;28;20085;-82
2024/01/20 12:13:50;;;;;;;29.33;17.42;;;;;;;;;;5117813;28;20047;-82
2024/01/20 12:16:17;;;;;;;33.83;18.15;;;;;;;;;;5113447;28;20083;-81
2024/01/20 12:18:46;;;;;;;30.13;17.95;;;;;;;;;;5123371;28;20047;-81
2024/01/20 12:21:12;;;;;;;31.88;18.83;;;;;;;;;;5122710;28;20472;-82
2024/01/20 12:23:38;;;;;;;31.17;19.27;;;;;;;;;;5107517;28;20554;-82
2024/01/20 12:26:11;;;;;;;33.10;18.85;;;;;;;;;;5103720;28;20172;-81
2024/01/20 12:28:38;;;;;;;28.55;18.17;;;;;;;;;;5104058;28;20102;-82
2024/01/20 12:31:04;;;;;;;29.13;18.00;;;;;;;;;;5101731;28;20036;-82
2024/01/20 12:33:30;;;;;;;33.08;20.15;;;;;;;;;;5102378;28;20048;-81
2024/01/20 12:35:56;;;;;;;33.17;19.33;;;;;;;;;;5102695;28;20066;-81
2024/01/20 12:38:22;;;;;;;31.38;18.95;;;;;;;;;;5102023;28;20076;-81
2024/01/20 12:40:48;;;;;;;36.00;20.63;;;;;;;;;;5100551;28;20044;-81
2024/01/20 12:43:14;;;;;;;28.63;18.20;;;;;;;;;;5120355;28;20047;-81
2024/01/20 12:45:40;;;;;;;27.83;18.48;;;;;;;;;;5104971;28;20081;-82
2024/01/20 12:48:06;;;;;;;33.30;19.48;;;;;;;;;;5102326;28;20044;-82
2024/01/20 12:50:35;;;;;;;32.28;18.75;;;;;;;;;;5102802;28;20123;-82
2024/01/20 12:53:01;;;;;;;28.45;17.75;;;;;;;;;;5102649;28;20044;-81
2024/01/20 12:55:28;;;;;;;32.20;18.67;;;;;;;;;;5102285;28;20157;-81
2024/01/20 12:57:54;;;;;;;29.40;16.98;;;;;;;;;;5102298;28;20465;-81
2024/01/20 13:00:20;;;;;;;28.90;18.02;;;;;;;;;;5121894;28;20126;-80
2024/01/20 13:02:46;;;;;;;27.17;17.25;;;;;;;;;;5122660;28;20055;-80
2024/01/20 13:05:12;;;;;;;29.67;18.42;;;;;;;;;;5122710;28;20058;-82
2024/01/20 13:07:38;;;;;;;28.05;16.95;;;;;;;;;;5122037;28;20039;-81
2024/01/20 13:10:05;;;;;;;31.15;18.73;;;;;;;;;;5123273;28;20058;-80
2024/01/20 13:12:32;;;;;;;37.25;25.98;;;;;;;;;;5122717;28;20423;-82
2024/01/20 13:14:58;;;;;;;33.90;23.33;;;;;;;;;;5122045;27;20059;-81
2024/01/20 13:17:25;;;;;;;34.90;25.70;;;;;;;;;;5122652;28;20056;-81
2024/01/20 13:19:51;;;;;;;31.55;22.85;;;;;;;;;;5122607;28;20092;-81
2024/01/20 13:22:17;;;;;;;38.53;27.92;;;;;;;;;;5120186;28;20040;-80
2024/01/20 13:24:43;;;;;;;28.67;18.90;;;;;;;;;;5109006;28;20044;-81
2024/01/20 13:27:09;;;;;;;40.42;29.02;;;;;;;;;;5104255;28;20064;-80
2024/01/20 13:29:35;;;;;;;31.30;19.80;;;;;;;;;;5117650;28;20054;-81
2024/01/20 13:32:02;;;;;;;29.77;19.67;;;;;;;;;;5116268;28;20393;-80
2024/01/20 13:34:28;;;;;;;32.38;21.58;;;;;;;;;;5108944;28;20056;-81
2024/01/20 13:36:54;;;;;;;34.55;21.98;;;;;;;;;;5111696;28;20043;-82
2024/01/20 13:39:20;;;;;;;32.63;19.45;;;;;;;;;;5121387;28;20066;-81
2024/01/20 13:41:46;;;;;;;28.52;16.83;;;;;;;;;;5120710;28;20052;-80
2024/01/20 13:44:12;;;;;;;30.02;17.85;;;;;;;;;;5103785;28;20048;-80
2024/01/20 13:46:38;;;;;;;29.33;18.40;;;;;;;;;;5121650;28;20039;-81
2024/01/20 13:49:04;;;;;;;25.77;18.13;;;;;;;;;;5104611;28;20397;-80
2024/01/20 13:51:31;;;;;;;27.75;17.38;;;;;;;;;;5101040;28;20100;-80
2024/01/20 13:53:59;;;;;;;27.55;17.63;;;;;;;;;;5112519;28;20047;-80
2024/01/20 13:56:25;;;;;;;27.83;17.45;;;;;;;;;;5122356;28;20047;-81
2024/01/20 13:58:55;;;;;;;27.92;17.05;;;;;;;;;;5104849;28;20432;-81
2024/01/20 14:01:22;;;;;;;26.83;17.40;;;;;;;;;;5110608;28;20036;-80
2024/01/20 14:03:51;;;;;;;28.33;16.90;;;;;;;;;;5100965;28;20087;-81
2024/01/20 14:06:18;;;;;;;26.30;17.50;;;;;;;;;;5100592;28;20109;-80
2024/01/20 14:08:44;;;;;;;27.58;16.13;;;;;;;;;;5100854;28;20055;-80
2024/01/20 14:11:10;;;;;;;35.95;25.40;;;;;;;;;;5101378;28;20078;-81